createdAt,value
2018-04-01T00:02:06.937Z,98432
2018-04-01T00:07:34.388Z,98438
2018-04-01T00:10:01.857Z,98430
2018-04-01T00:12:29.327Z,98430
2018-04-01T00:14:59.519Z,98442
2018-04-01T00:17:27.793Z,98431
2018-04-01T00:19:55.275Z,98427
2018-04-01T00:22:23.518Z,98421
2018-04-01T00:27:52.490Z,98430
2018-04-01T00:30:29.958Z,98434
2018-04-01T00:32:58.234Z,98447
2018-04-01T00:35:26.471Z,98443
2018-04-01T00:43:55.550Z,98449
2018-04-01T00:46:23.054Z,98438
2018-04-01T00:51:50.797Z,98450
2018-04-01T00:54:18.275Z,98443
2018-04-01T00:59:45.752Z,98412
2018-04-01T01:02:13.219Z,98424
2018-04-01T01:04:40.709Z,98431
2018-04-01T01:07:08.221Z,98426
2018-04-01T01:09:35.691Z,98422
2018-04-01T01:12:03.167Z,98428
2018-04-01T01:14:30.677Z,98428
2018-04-01T01:16:58.174Z,98434
2018-04-01T01:19:25.696Z,98455
2018-04-01T01:21:53.196Z,98456
2018-04-01T01:24:30.577Z,98456
2018-04-01T01:26:58.077Z,98465
2018-04-01T01:29:26.622Z,98456
2018-04-01T01:31:54.094Z,98457
2018-04-01T01:34:21.602Z,98455
2018-04-01T01:36:49.068Z,98451
2018-04-01T01:45:18.670Z,98448
2018-04-01T01:47:46.172Z,98444
2018-04-01T01:50:13.646Z,98450
2018-04-01T01:52:41.206Z,98446
2018-04-01T01:55:08.740Z,98454
2018-04-01T01:57:36.213Z,98435
2018-04-01T02:00:03.713Z,98428
2018-04-01T02:02:32.692Z,98434
2018-04-01T02:05:00.331Z,98420
2018-04-01T02:10:28.407Z,98402
2018-04-01T02:12:57.023Z,98400
2018-04-01T02:15:24.488Z,98408
2018-04-01T02:17:52.009Z,98407
2018-04-01T02:20:19.478Z,98408
2018-04-01T02:22:47.018Z,98410
2018-04-01T02:25:14.581Z,98401
2018-04-01T02:27:42.049Z,98396
2018-04-01T02:30:09.720Z,98391
2018-04-01T02:32:37.234Z,98400
2018-04-01T02:38:06.117Z,98420
2018-04-01T02:40:34.363Z,98405
2018-04-01T02:43:01.846Z,98419
2018-04-01T02:45:30.125Z,98426
2018-04-01T02:47:58.368Z,98431
2018-04-01T02:53:26.074Z,98445
2018-04-01T02:55:54.326Z,98443
2018-04-01T02:58:21.796Z,98449
2018-04-01T03:00:49.310Z,98443
2018-04-01T03:03:29.758Z,98438
2018-04-01T03:08:57.345Z,98447
2018-04-01T03:11:24.885Z,98452
2018-04-01T03:13:52.358Z,98456
2018-04-01T03:16:19.879Z,98463
2018-04-01T03:18:48.112Z,98470
2018-04-01T03:21:15.586Z,98459
2018-04-01T03:23:43.222Z,98449
2018-04-01T03:26:10.694Z,98456
2018-04-01T03:28:38.174Z,98451
2018-04-01T03:37:07.551Z,98457
2018-04-01T03:39:35.031Z,98469
2018-04-01T03:42:02.573Z,98465
2018-04-01T03:44:30.125Z,98463
2018-04-01T03:46:57.723Z,98472
2018-04-01T03:52:25.786Z,98467
2018-04-01T03:54:53.266Z,98470
2018-04-01T03:57:20.729Z,98469
2018-04-01T03:59:48.377Z,98469
2018-04-01T04:02:15.850Z,98457
2018-04-01T04:04:43.448Z,98469
2018-04-01T04:07:11.729Z,98468
2018-04-01T04:09:39.965Z,98473
2018-04-01T04:12:07.431Z,98467
2018-04-01T04:14:34.937Z,98470
2018-04-01T04:17:02.406Z,98474
2018-04-01T04:19:29.887Z,98468
2018-04-01T04:21:57.407Z,98478
2018-04-01T04:24:24.877Z,98456
2018-04-01T04:26:52.351Z,98465
2018-04-01T04:29:19.858Z,98467
2018-04-01T04:31:48.136Z,98469
2018-04-01T04:34:16.376Z,98470
2018-04-01T04:36:44.081Z,98474
2018-04-01T04:39:11.691Z,98484
2018-04-01T04:44:39.276Z,98470
2018-04-01T04:47:06.746Z,98477
2018-04-01T04:49:34.222Z,98482
2018-04-01T04:52:02.500Z,98482
2018-04-01T04:54:30.753Z,98485
2018-04-01T04:59:59.549Z,98503
2018-04-01T05:02:27.012Z,98500
2018-04-01T05:04:54.499Z,98504
2018-04-01T05:07:22.260Z,98504
2018-04-01T05:09:49.729Z,98498
2018-04-01T05:12:17.318Z,98516
2018-04-01T05:14:44.825Z,98512
2018-04-01T05:17:13.070Z,98511
2018-04-01T05:19:40.544Z,98516
2018-04-01T05:22:08.341Z,98513
2018-04-01T05:24:35.942Z,98521
2018-04-01T05:30:05.365Z,98529
2018-04-01T05:32:32.841Z,98511
2018-04-01T05:35:00.356Z,98521
2018-04-01T05:37:27.860Z,98514
2018-04-01T05:39:55.406Z,98528
2018-04-01T05:42:22.878Z,98522
2018-04-01T05:44:50.418Z,98535
2018-04-01T05:47:17.893Z,98536
2018-04-01T05:49:45.371Z,98555
2018-04-01T05:52:13.650Z,98556
2018-04-01T05:54:41.137Z,98562
2018-04-01T05:57:08.677Z,98554
2018-04-01T05:59:36.934Z,98552
2018-04-01T06:02:05.174Z,98565
2018-04-01T06:04:33.412Z,98555
2018-04-01T06:07:00.921Z,98565
2018-04-01T06:12:29.353Z,98572
2018-04-01T06:14:56.825Z,98591
2018-04-01T06:17:24.302Z,98576
2018-04-01T06:19:51.845Z,98585
2018-04-01T06:22:32.483Z,98595
2018-04-01T06:24:59.998Z,98591
2018-04-01T06:27:27.474Z,98603
2018-04-01T06:29:55.719Z,98604
2018-04-01T06:32:23.429Z,98607
2018-04-01T06:37:51.934Z,98615
2018-04-01T06:40:19.441Z,98644
2018-04-01T06:42:46.909Z,98630
2018-04-01T06:45:14.385Z,98641
2018-04-01T06:47:42.658Z,98645
2018-04-01T06:50:30.465Z,98643
2018-04-01T06:52:57.964Z,98641
2018-04-01T06:55:26.198Z,98646
2018-04-01T06:57:53.734Z,98642
2018-04-01T07:00:21.200Z,98651
2018-04-01T07:02:48.713Z,98652
2018-04-01T07:05:17.002Z,98661
2018-04-01T07:07:44.555Z,98664
2018-04-01T07:10:12.029Z,98663
2018-04-01T07:12:39.520Z,98660
2018-04-01T07:15:07.034Z,98661
2018-04-01T07:17:34.516Z,98650
2018-04-01T07:20:02.034Z,98675
2018-04-01T07:22:30.332Z,98684
2018-04-01T07:24:57.809Z,98681
2018-04-01T07:27:25.276Z,98687
2018-04-01T07:29:52.813Z,98681
2018-04-01T07:32:30.666Z,98687
2018-04-01T07:34:58.300Z,98695
2018-04-01T07:37:25.851Z,98692
2018-04-01T07:39:53.326Z,98690
2018-04-01T07:42:20.890Z,98695
2018-04-01T07:44:48.355Z,98705
2018-04-01T07:47:15.865Z,98697
2018-04-01T07:49:43.343Z,98702
2018-04-01T07:52:11.724Z,98699
2018-04-01T07:54:39.442Z,98691
2018-04-01T07:57:06.919Z,98691
2018-04-01T08:02:34.755Z,98698
2018-04-01T08:05:03.016Z,98686
2018-04-01T08:07:30.521Z,98690
2018-04-01T08:09:58.012Z,98698
2018-04-01T08:15:26.845Z,98690
2018-04-01T08:17:54.317Z,98701
2018-04-01T08:20:22.590Z,98699
2018-04-01T08:22:50.842Z,98706
2018-04-01T08:25:18.331Z,98701
2018-04-01T08:27:46.597Z,98705
2018-04-01T08:30:14.833Z,98698
2018-04-01T08:32:42.351Z,98703
2018-04-01T08:35:09.822Z,98703
2018-04-01T08:37:37.361Z,98704
2018-04-01T08:40:05.670Z,98695
2018-04-01T08:42:33.153Z,98699
2018-04-01T08:45:00.648Z,98694
2018-04-01T08:47:28.920Z,98712
2018-04-01T08:50:28.440Z,98700
2018-04-01T08:52:55.937Z,98712
2018-04-01T09:01:25.181Z,98689
2018-04-01T09:03:52.680Z,98692
2018-04-01T09:06:20.989Z,98696
2018-04-01T09:11:48.834Z,98695
2018-04-01T09:14:30.269Z,98686
2018-04-01T09:16:57.829Z,98698
2018-04-01T09:19:25.294Z,98686
2018-04-01T09:21:52.813Z,98701
2018-04-01T09:24:30.949Z,98680
2018-04-01T09:26:58.481Z,98697
2018-04-01T09:29:25.953Z,98695
2018-04-01T09:31:53.421Z,98704
2018-04-01T09:34:20.933Z,98702
2018-04-01T09:36:49.688Z,98704
2018-04-01T09:39:17.855Z,98696
2018-04-01T09:44:45.956Z,98724
2018-04-01T09:47:13.420Z,98712
2018-04-01T09:49:40.894Z,98715
2018-04-01T09:52:09.229Z,98713
2018-04-01T09:54:36.701Z,98719
2018-04-01T09:57:04.169Z,98728
2018-04-01T09:59:32.441Z,98731
2018-04-01T10:02:00.644Z,98739
2018-04-01T10:04:28.857Z,98738
2018-04-01T10:06:57.117Z,98753
2018-04-01T10:09:25.374Z,98742
2018-04-01T10:11:53.589Z,98753
2018-04-01T10:14:21.846Z,98743
2018-04-01T10:16:50.062Z,98752
2018-04-01T10:19:18.281Z,98764
2018-04-01T10:21:46.538Z,98752
2018-04-01T10:24:14.752Z,98747
2018-04-01T10:26:42.965Z,98751
2018-04-01T10:29:11.237Z,98752
2018-04-01T10:31:39.454Z,98778
2018-04-01T10:37:06.750Z,98772
2018-04-01T10:40:55.232Z,98771
2018-04-01T10:43:23.522Z,98770
2018-04-01T10:45:51.742Z,98774
2018-04-01T10:48:29.702Z,98793
2018-04-01T10:50:58.691Z,98780
2018-04-01T10:53:27.688Z,98786
2018-04-01T10:55:55.967Z,98799
2018-04-01T10:58:24.219Z,98787
2018-04-01T11:00:51.694Z,98804
2018-04-01T11:03:19.975Z,98805
2018-04-01T11:05:48.274Z,98816
2018-04-01T11:08:16.500Z,98809
2018-04-01T11:10:44.004Z,98823
2018-04-01T11:13:11.463Z,98824
2018-04-01T11:15:38.947Z,98815
2018-04-01T11:18:06.466Z,98821
2018-04-01T11:20:34.708Z,98829
2018-04-01T11:23:02.186Z,98827
2018-04-01T11:25:30.464Z,98831
2018-04-01T11:30:59.310Z,98836
2018-04-01T11:33:26.786Z,98824
2018-04-01T11:35:54.276Z,98839
2018-04-01T11:41:23.001Z,98833
2018-04-01T11:43:50.477Z,98843
2018-04-01T11:46:18.068Z,98847
2018-04-01T11:48:45.587Z,98838
2018-04-01T11:51:13.065Z,98841
2018-04-01T11:53:40.554Z,98844
2018-04-01T11:56:08.061Z,98851
2018-04-01T11:58:37.301Z,98848
2018-04-01T12:01:04.778Z,98844
2018-04-01T12:03:32.290Z,98839
2018-04-01T12:05:59.771Z,98847
2018-04-01T12:08:30.383Z,98855
2018-04-01T12:13:57.953Z,98851
2018-04-01T12:16:25.440Z,98858
2018-04-01T12:18:53.722Z,98849
2018-04-01T12:24:22.852Z,98859
2018-04-01T12:29:50.673Z,98852
2018-04-01T12:32:18.163Z,98851
2018-04-01T12:34:45.634Z,98868
2018-04-01T12:37:13.160Z,98856
2018-04-01T12:42:40.812Z,98856
2018-04-01T12:45:08.287Z,98851
2018-04-01T12:47:36.391Z,98854
2018-04-01T12:50:03.309Z,98857
2018-04-01T12:52:30.784Z,98843
2018-04-01T12:54:58.263Z,98849
2018-04-01T12:57:25.778Z,98843
2018-04-01T12:59:53.247Z,98844
2018-04-01T13:02:20.709Z,98854
2018-04-01T13:10:49.648Z,98855
2018-04-01T13:13:17.145Z,98854
2018-04-01T13:15:44.629Z,98863
2018-04-01T13:18:12.165Z,98858
2018-04-01T13:20:40.405Z,98860
2018-04-01T13:23:07.871Z,98865
2018-04-01T13:25:35.576Z,98870
2018-04-01T13:28:03.049Z,98862
2018-04-01T13:30:30.521Z,98871
2018-04-01T13:32:58.046Z,98876
2018-04-01T13:35:25.516Z,98875
2018-04-01T13:37:52.999Z,98872
2018-04-01T13:40:20.535Z,98878
2018-04-01T13:42:48.125Z,98892
2018-04-01T13:45:15.584Z,98882
2018-04-01T13:50:58.161Z,98895
2018-04-01T13:53:25.673Z,98901
2018-04-01T13:55:53.141Z,98909
2018-04-01T13:58:20.621Z,98911
2018-04-01T14:00:48.892Z,98903
2018-04-01T14:06:17.622Z,98907
2018-04-01T14:08:45.106Z,98926
2018-04-01T14:11:12.582Z,98918
2018-04-01T14:13:40.085Z,98919
2018-04-01T14:16:07.554Z,98920
2018-04-01T14:21:35.033Z,98929
2018-04-01T14:24:02.530Z,98929
2018-04-01T14:26:30.051Z,98937
2018-04-01T14:28:57.571Z,98935
2018-04-01T14:31:25.825Z,98940
2018-04-01T14:33:54.792Z,98934
2018-04-01T14:36:22.289Z,98943
2018-04-01T14:38:50.524Z,98939
2018-04-01T14:41:17.993Z,98942
2018-04-01T14:43:45.577Z,98953
2018-04-01T14:46:30.553Z,98944
2018-04-01T14:48:58.949Z,98948
2018-04-01T14:51:26.424Z,98948
2018-04-01T14:53:54.636Z,98965
2018-04-01T14:56:22.136Z,98962
2018-04-01T14:58:49.609Z,98963
2018-04-01T15:04:17.706Z,98960
2018-04-01T15:06:45.171Z,98977
2018-04-01T15:09:12.677Z,98981
2018-04-01T15:11:40.975Z,98968
2018-04-01T15:14:29.803Z,98986
2018-04-01T15:16:57.340Z,98979
2018-04-01T15:19:24.810Z,98987
2018-04-01T15:21:52.278Z,98978
2018-04-01T15:24:19.790Z,98993
2018-04-01T15:26:47.254Z,98994
2018-04-01T15:29:14.737Z,98998
2018-04-01T15:31:42.295Z,98989
2018-04-01T15:34:09.778Z,99017
2018-04-01T15:36:38.022Z,98996
2018-04-01T15:39:05.545Z,98999
2018-04-01T15:41:33.038Z,99005
2018-04-01T15:44:00.697Z,99009
2018-04-01T15:46:28.233Z,99002
2018-04-01T15:48:55.693Z,99008
2018-04-01T15:51:24.108Z,99013
2018-04-01T15:53:52.389Z,99016
2018-04-01T15:59:31.261Z,99010
2018-04-01T16:01:59.171Z,99013
2018-04-01T16:04:26.647Z,99010
2018-04-01T16:06:54.167Z,99006
2018-04-01T16:09:22.246Z,99018
2018-04-01T16:14:51.409Z,98995
2018-04-01T16:17:31.960Z,99025
2018-04-01T16:20:00.253Z,99026
2018-04-01T16:22:28.504Z,99034
2018-04-01T16:24:55.985Z,99034
2018-04-01T16:27:24.273Z,99013
2018-04-01T16:29:51.743Z,99018
2018-04-01T16:32:19.218Z,99027
2018-04-01T16:34:46.733Z,99025
2018-04-01T16:37:14.211Z,99021
2018-04-01T16:39:41.730Z,99025
2018-04-01T16:45:10.444Z,99035
2018-04-01T16:47:38.694Z,99038
2018-04-01T16:50:06.162Z,99034
2018-04-01T16:52:33.671Z,99041
2018-04-01T16:55:01.177Z,99051
2018-04-01T16:57:29.660Z,99048
2018-04-01T16:59:57.148Z,99044
2018-04-01T17:02:24.632Z,99058
2018-04-01T17:04:52.099Z,99065
2018-04-01T17:07:19.612Z,99072
2018-04-01T17:09:47.865Z,99068
2018-04-01T17:12:16.101Z,99066
2018-04-01T17:14:43.604Z,99081
2018-04-01T17:17:12.450Z,99075
2018-04-01T17:22:40.777Z,99088
2018-04-01T17:25:08.261Z,99090
2018-04-01T17:27:35.725Z,99079
2018-04-01T17:30:03.282Z,99089
2018-04-01T17:32:30.766Z,99094
2018-04-01T17:37:58.225Z,99095
2018-04-01T17:40:31.643Z,99097
2018-04-01T17:42:59.151Z,99109
2018-04-01T17:45:27.812Z,99106
2018-04-01T17:47:55.288Z,99109
2018-04-01T17:50:23.621Z,99121
2018-04-01T17:52:51.085Z,99110
2018-04-01T17:55:32.195Z,99120
2018-04-01T17:57:59.671Z,99122
2018-04-01T18:00:27.915Z,99120
2018-04-01T18:02:55.409Z,99153
2018-04-01T18:05:22.900Z,99137
2018-04-01T18:07:51.419Z,99133
2018-04-01T18:10:18.946Z,99142
2018-04-01T18:12:46.463Z,99143
2018-04-01T18:15:13.929Z,99160
2018-04-01T18:17:41.483Z,99156
2018-04-01T18:20:09.928Z,99147
2018-04-01T18:22:37.473Z,99170
2018-04-01T18:25:04.937Z,99176
2018-04-01T18:27:32.401Z,99183
2018-04-01T18:32:42.953Z,99180
2018-04-01T18:35:10.459Z,99179
2018-04-01T18:37:39.714Z,99180
2018-04-01T18:40:07.244Z,99185
2018-04-01T18:42:34.714Z,99189
2018-04-01T18:48:03.669Z,99207
2018-04-01T18:50:31.906Z,99210
2018-04-01T18:52:59.406Z,99197
2018-04-01T18:55:27.657Z,99219
2018-04-01T18:57:55.223Z,99218
2018-04-01T19:00:22.699Z,99225
2018-04-01T19:02:50.924Z,99206
2018-04-01T19:05:18.415Z,99228
2018-04-01T19:07:45.913Z,99228
2018-04-01T19:10:13.401Z,99229
2018-04-01T19:12:40.872Z,99237
2018-04-01T19:15:08.399Z,99239
2018-04-01T19:17:36.623Z,99246
2018-04-01T19:20:05.614Z,99249
2018-04-01T19:22:33.890Z,99250
2018-04-01T19:25:02.860Z,99245
2018-04-01T19:27:31.057Z,99250
2018-04-01T19:30:00.082Z,99243
2018-04-01T19:32:28.294Z,99253
2018-04-01T19:34:56.549Z,99256
2018-04-01T19:37:25.382Z,99261
2018-04-01T19:39:53.825Z,99259
2018-04-01T19:42:22.132Z,99258
2018-04-01T19:44:50.379Z,99260
2018-04-01T19:47:18.660Z,99268
2018-04-01T19:49:46.942Z,99273
2018-04-01T19:52:15.185Z,99269
2018-04-01T19:54:43.410Z,99269
2018-04-01T19:57:31.661Z,99260
2018-04-01T19:59:59.973Z,99270
2018-04-01T20:02:28.177Z,99271
2018-04-01T20:04:56.395Z,99275
2018-04-01T20:07:25.411Z,99289
2018-04-01T20:12:54.417Z,99297
2018-04-01T20:15:22.626Z,99304
2018-04-01T20:17:50.837Z,99313
2018-04-01T20:20:19.875Z,99306
2018-04-01T20:22:48.098Z,99300
2018-04-01T20:25:16.305Z,99327
2018-04-01T20:27:46.317Z,99331
2018-04-01T20:30:15.289Z,99324
2018-04-01T20:32:43.567Z,99331
2018-04-01T20:35:11.795Z,99326
2018-04-01T20:37:40.031Z,99341
2018-04-01T20:40:09.033Z,99336
2018-04-01T20:42:37.318Z,99334
2018-04-01T20:45:05.537Z,99330
2018-04-01T20:47:33.740Z,99336
2018-04-01T20:50:02.804Z,99331
2018-04-01T20:52:31.008Z,99345
2018-04-01T20:55:00.010Z,99348
2018-04-01T20:57:29.027Z,99334
2018-04-01T20:59:57.292Z,99353
2018-04-01T21:02:25.501Z,99354
2018-04-01T21:04:53.708Z,99349
2018-04-01T21:07:21.972Z,99360
2018-04-01T21:09:50.173Z,99370
2018-04-01T21:12:19.149Z,99364
2018-04-01T21:14:47.398Z,99365
2018-04-01T21:17:15.620Z,99366
2018-04-01T21:19:44.605Z,99371
2018-04-01T21:22:13.582Z,99373
2018-04-01T21:24:41.900Z,99355
2018-04-01T21:27:10.137Z,99365
2018-04-01T21:29:39.121Z,99373
2018-04-01T21:32:07.385Z,99373
2018-04-01T21:34:35.589Z,99376
2018-04-01T21:37:04.561Z,99366
2018-04-01T21:39:32.824Z,99377
2018-04-01T21:42:01.029Z,99367
2018-04-01T21:44:30.001Z,99374
2018-04-01T21:49:58.574Z,99381
2018-04-01T21:52:26.803Z,99379
2018-04-01T21:54:55.085Z,99384
2018-04-01T21:57:23.318Z,99381
2018-04-01T21:59:51.533Z,99378
2018-04-01T22:02:30.914Z,99371
2018-04-01T22:04:59.134Z,99375
2018-04-01T22:07:28.104Z,99387
2018-04-01T22:09:56.350Z,99384
2018-04-01T22:12:24.589Z,99390
2018-04-01T22:17:54.105Z,99392
2018-04-01T22:20:22.338Z,99395
2018-04-01T22:23:08.631Z,99390
2018-04-01T22:25:36.898Z,99389
2018-04-01T22:28:05.134Z,99386
2018-04-01T22:30:34.124Z,99398
2018-04-01T22:33:02.379Z,99403
2018-04-01T22:35:31.348Z,99400
2018-04-01T22:37:59.589Z,99403
2018-04-01T22:40:27.797Z,99398
2018-04-01T22:42:56.763Z,99400
2018-04-01T22:45:24.980Z,99405
2018-04-01T22:47:53.227Z,99404
2018-04-01T22:50:21.442Z,99408
2018-04-01T22:52:50.448Z,99407
2018-04-01T22:55:18.667Z,99407
2018-04-01T23:00:47.344Z,99414
2018-04-01T23:03:15.601Z,99419
2018-04-01T23:05:43.845Z,99414
2018-04-01T23:08:12.079Z,99418
2018-04-01T23:10:40.294Z,99420
2018-04-01T23:16:08.884Z,99417
2018-04-01T23:18:37.089Z,99428
2018-04-01T23:21:06.078Z,99430
2018-04-01T23:23:35.221Z,99420
2018-04-01T23:29:03.928Z,99438
2018-04-01T23:31:32.174Z,99441
2018-04-01T23:34:00.386Z,99438
2018-04-01T23:36:28.673Z,99433
2018-04-01T23:38:56.884Z,99441
2018-04-01T23:41:25.858Z,99448
2018-04-01T23:43:54.877Z,99442
2018-04-01T23:46:23.107Z,99438
2018-04-01T23:48:51.370Z,99442
2018-04-01T23:51:19.582Z,99436
2018-04-01T23:53:48.604Z,99449
2018-04-01T23:56:16.842Z,99449
2018-04-01T23:58:45.049Z,99438
